createdAt,value
2023-03-31T00:08:07.481Z,5.96
2023-03-31T00:18:30.246Z,5.92
2023-03-31T00:28:51.849Z,5.90
2023-03-31T00:39:16.946Z,5.87
2023-03-31T00:49:45.534Z,5.86
2023-03-31T01:00:16.342Z,5.82
2023-03-31T01:10:42.060Z,5.80
2023-03-31T01:21:23.664Z,5.79
2023-03-31T01:31:44.868Z,5.78
2023-03-31T01:42:14.018Z,5.77
2023-03-31T01:52:48.575Z,5.76
2023-03-31T02:03:18.653Z,5.76
2023-03-31T02:13:41.704Z,5.75
2023-03-31T02:24:07.928Z,5.75
2023-03-31T02:34:29.312Z,5.74
2023-03-31T02:44:53.259Z,5.75
2023-03-31T02:55:50.756Z,5.74
2023-03-31T03:06:28.145Z,5.73
2023-03-31T03:17:34.919Z,5.72
2023-03-31T03:27:56.816Z,5.72
2023-03-31T03:38:17.932Z,5.71
2023-03-31T03:48:38.939Z,5.68
2023-03-31T03:59:00.031Z,5.66
2023-03-31T04:09:21.311Z,5.65
2023-03-31T04:19:42.667Z,5.65
2023-03-31T04:30:04.241Z,5.63
2023-03-31T04:40:26.211Z,5.62
2023-03-31T04:50:47.414Z,5.60
2023-03-31T05:01:08.380Z,5.56
2023-03-31T05:11:29.815Z,5.52
2023-03-31T05:21:51.185Z,5.52
2023-03-31T05:32:12.417Z,5.51
2023-03-31T05:42:33.599Z,5.52
2023-03-31T05:52:54.777Z,5.53
2023-03-31T06:03:16.189Z,5.55
2023-03-31T06:13:38.509Z,5.56
2023-03-31T06:24:01.087Z,5.61
2023-03-31T06:34:22.407Z,5.64
2023-03-31T06:44:43.865Z,5.69
2023-03-31T06:55:05.660Z,5.72
2023-03-31T07:05:28.941Z,5.76
2023-03-31T07:15:51.347Z,5.84
2023-03-31T07:26:13.436Z,5.90
2023-03-31T07:36:34.875Z,6.01
2023-03-31T07:46:56.199Z,6.07
2023-03-31T07:57:20.144Z,6.14
2023-03-31T08:07:43.974Z,6.18
2023-03-31T08:18:05.645Z,6.20
2023-03-31T08:28:26.756Z,6.19
2023-03-31T08:38:50.037Z,6.20
2023-03-31T08:49:16.746Z,6.21
2023-03-31T08:59:39.301Z,6.24
2023-03-31T09:10:30.924Z,6.26
2023-03-31T09:20:53.245Z,6.30
2023-03-31T09:31:18.590Z,6.33
2023-03-31T09:41:44.003Z,6.35
2023-03-31T09:52:08.193Z,6.44
2023-03-31T10:02:32.901Z,6.56
2023-03-31T10:12:54.841Z,6.66
2023-03-31T10:23:18.726Z,6.77
2023-03-31T10:33:45.303Z,6.86
2023-03-31T10:44:06.915Z,6.82
2023-03-31T10:54:28.185Z,6.81
2023-03-31T11:04:53.540Z,6.82
2023-03-31T11:15:40.301Z,6.82
2023-03-31T11:26:06.424Z,6.93
2023-03-31T11:36:42.372Z,7.04
2023-03-31T11:47:24.965Z,7.13
2023-03-31T11:58:01.608Z,7.25
2023-03-31T12:08:25.540Z,7.41
2023-03-31T12:19:09.270Z,7.62
2023-03-31T12:30:22.808Z,7.70
2023-03-31T12:40:58.497Z,7.80
2023-03-31T12:51:37.227Z,7.92
2023-03-31T13:02:10.440Z,7.97
2023-03-31T13:12:35.730Z,8.07
2023-03-31T13:23:21.576Z,8.13
2023-03-31T13:33:58.400Z,8.22
2023-03-31T13:44:44.375Z,8.33
2023-03-31T13:55:44.030Z,8.40
2023-03-31T14:06:53.403Z,8.50
2023-03-31T14:17:16.698Z,8.49
2023-03-31T14:28:02.669Z,8.33
2023-03-31T14:38:24.099Z,8.10
2023-03-31T14:48:47.472Z,7.97
2023-03-31T14:59:08.926Z,7.90
2023-03-31T15:09:31.503Z,7.92
2023-03-31T15:19:55.486Z,7.89
2023-03-31T15:30:22.681Z,7.86
2023-03-31T15:40:44.693Z,7.84
2023-03-31T15:51:14.622Z,7.95
2023-03-31T16:01:56.070Z,8.07
2023-03-31T16:12:24.339Z,8.16
2023-03-31T16:22:49.915Z,8.21
2023-03-31T16:33:18.220Z,8.26
2023-03-31T16:43:39.258Z,8.29
2023-03-31T16:54:00.709Z,8.30
2023-03-31T17:04:23.470Z,8.30
2023-03-31T17:14:44.898Z,8.30
2023-03-31T17:25:08.150Z,8.30
2023-03-31T17:35:29.639Z,8.31
2023-03-31T17:45:51.015Z,8.29
2023-03-31T17:56:13.968Z,8.29
2023-03-31T18:06:35.595Z,8.33
2023-03-31T18:16:58.042Z,8.33
2023-03-31T18:27:18.991Z,8.34
2023-03-31T18:37:40.732Z,8.38
2023-03-31T18:48:02.636Z,8.29
2023-03-31T18:58:25.785Z,8.27
2023-03-31T19:08:47.265Z,8.19
2023-03-31T19:19:08.781Z,8.15
2023-03-31T19:29:32.079Z,8.09
2023-03-31T19:39:53.496Z,8.09
2023-03-31T19:50:16.491Z,8.09
2023-03-31T20:00:39.654Z,8.08
2023-03-31T20:11:02.538Z,8.00
2023-03-31T20:21:26.426Z,7.95
2023-03-31T20:31:50.488Z,7.88
2023-03-31T20:42:13.038Z,7.86
2023-03-31T20:52:34.877Z,7.83
2023-03-31T21:02:56.737Z,7.78
2023-03-31T21:13:18.292Z,7.77
2023-03-31T21:23:39.969Z,7.73
2023-03-31T21:34:02.741Z,7.72
2023-03-31T21:44:24.241Z,7.71
2023-03-31T21:54:46.033Z,7.71
2023-03-31T22:05:07.654Z,7.68
2023-03-31T22:15:29.100Z,7.67
2023-03-31T22:25:50.573Z,7.63
2023-03-31T22:36:12.294Z,7.62
2023-03-31T22:46:34.395Z,7.60
2023-03-31T22:56:57.342Z,7.58
2023-03-31T23:07:18.700Z,7.58
2023-03-31T23:17:39.831Z,7.57
2023-03-31T23:28:02.379Z,7.57
2023-03-31T23:38:24.040Z,7.54
2023-03-31T23:48:45.567Z,7.52
2023-03-31T23:59:07.080Z,7.52
